Nissin Maru — JL6697 — position and weather

sailwx.info

Track history (hours):
 
Tides and Currents Weather Stations Pressure Air Temp Water Temp Dewpoint Dewpoint Depression Visibility Wind Speed Wind Dir Waves Ship Positions

Nissin Maru

Last reported at 2018-Jun-19 17:39 UTC. Time now 2018-Jun-25 00:11 UTC.
Position N 34°24' E 134°14'.

Length 73 m; draft 4 m.

Type: Cargo ship. MMSI: 431501779.

Date/timePositionNaut miles runAvg speedWind from/ knotsBaromVisibWave heightAir tempDewpointWater temp
2018-Jun-19 17:39N 34°24' E 134°14'212.4
2018-Jun-19 17:29N 34°24' E 134°17'612.0
2018-Jun-19 17:00N 34°22' E 134°24'612.2
2018-Jun-19 16:30N 34°20' E 134°30'2012.2
2018-Jun-19 14:50N 34°06' E 134°48'412.1
2018-Jun-19 14:28N 34°03' E 134°52'612.5
2018-Jun-19 14:00N 33°58' E 134°56'712.9
2018-Jun-19 13:29N 33°53' E 135°01'  
2018-Jun-16 04:17N 35°10' E 139°44'312.0
2018-Jun-16 04:00N 35°13' E 139°46'611.8
2018-Jun-16 03:30N 35°18' E 139°44'510.9
2018-Jun-16 03:00N 35°23' E 139°40'1 1.1
2018-Jun-16 02:30N 35°22' E 139°39'0 0.0
2018-Jun-16 02:00N 35°22' E 139°39'0 0.0
2018-Jun-16 01:30N 35°22' E 139°39'0 0.0
2018-Jun-16 01:00N 35°22' E 139°39'0 0.0
2018-Jun-16 00:30N 35°22' E 139°39'0 0.0
2018-Jun-16 00:00N 35°22' E 139°39'0 0.0
2018-Jun-15 23:30N 35°22' E 139°39'0 0.0
2018-Jun-15 23:00N 35°22' E 139°39'0 0.0
2018-Jun-15 22:30N 35°22' E 139°39'1 1.5
2018-Jun-15 22:00N 35°22' E 139°40'0 0.0
2018-Jun-15 21:30N 35°22' E 139°40'0 0.1
2018-Jun-15 21:00N 35°22' E 139°40'1 1.2
2018-Jun-15 20:30N 35°22' E 139°41'611.3
2018-Jun-15 20:00N 35°18' E 139°45'510.8
2018-Jun-15 19:30N 35°12' E 139°47'610.8
2018-Jun-15 18:59N 35°07' E 139°46'  
Track history (hours):
 
Tides and Currents Weather Stations Pressure Air Temp Water Temp Dewpoint Dewpoint Depression Visibility Wind Speed Wind Dir Waves Ship Positions

Nissin Maru

Last reported at 2018-Jun-19 17:39 UTC. Time now 2018-Jun-25 00:11 UTC.
Position N 34°24' E 134°14'.

Length 73 m; draft 4 m.

Type: Cargo ship. MMSI: 431501779.

Date/timePositionNaut miles runAvg speedWind from/ knotsBaromVisibWave heightAir tempDewpointWater temp
2018-Jun-19 17:39N 34°24' E 134°14'212.4
2018-Jun-19 17:29N 34°24' E 134°17'612.0
2018-Jun-19 17:00N 34°22' E 134°24'612.2
2018-Jun-19 16:30N 34°20' E 134°30'2012.2
2018-Jun-19 14:50N 34°06' E 134°48'412.1
2018-Jun-19 14:28N 34°03' E 134°52'612.5
2018-Jun-19 14:00N 33°58' E 134°56'712.9
2018-Jun-19 13:29N 33°53' E 135°01'  
2018-Jun-16 04:17N 35°10' E 139°44'312.0
2018-Jun-16 04:00N 35°13' E 139°46'611.8
2018-Jun-16 03:30N 35°18' E 139°44'510.9
2018-Jun-16 03:00N 35°23' E 139°40'1 1.1
2018-Jun-16 02:30N 35°22' E 139°39'0 0.0
2018-Jun-16 02:00N 35°22' E 139°39'0 0.0
2018-Jun-16 01:30N 35°22' E 139°39'0 0.0
2018-Jun-16 01:00N 35°22' E 139°39'0 0.0
2018-Jun-16 00:30N 35°22' E 139°39'0 0.0
2018-Jun-16 00:00N 35°22' E 139°39'0 0.0
2018-Jun-15 23:30N 35°22' E 139°39'0 0.0
2018-Jun-15 23:00N 35°22' E 139°39'0 0.0
2018-Jun-15 22:30N 35°22' E 139°39'1 1.5
2018-Jun-15 22:00N 35°22' E 139°40'0 0.0
2018-Jun-15 21:30N 35°22' E 139°40'0 0.1
2018-Jun-15 21:00N 35°22' E 139°40'1 1.2
2018-Jun-15 20:30N 35°22' E 139°41'611.3
2018-Jun-15 20:00N 35°18' E 139°45'510.8
2018-Jun-15 19:30N 35°12' E 139°47'610.8
2018-Jun-15 18:59N 35°07' E 139°46'  

Dump ship's entire track history